Etusivu
METAR-TAF:

METAR-TAF

Lentoasemat :

Lycksele, Ruotsi

Leveyspiiri: 64-32-51N, Pituuspiiri: 018-43-03E, korkeus merenpinnasta: 211 m

Tämänhetkinen sää

Tämä raportti tehtiin 29 minuuttia sitten, kello 10.20 UTC
Tuuli 6 kn kaakosta
Lämpötila -5°C
Kosteus 93%
Ilmanpaine 1011 hPa
Näkyvyys: 3600 m
Pilvistä 800 ft:n korkeudessa
lumijyväsiä

METAR: ESNL 121020Z 14006KT 3600 SG OVC008 M05/M06 Q1011 RESN RESG

Aika: 11:49 (10:49 UTC)


TAF: puuttuu

Säähavainnot ja -ennusteet yli 4000 lentoasemalta (METAR- ja TAF-raportit).

Käytössä olevat sääasemat on merkitty karttaan keltaisilla ja punaisilla pisteillä.

Aseta hiiri pisteen päälle nähdäksesi sääaseman nimen.

Klikkaa sitten nähdäksesi säähavainnot ja -ennusteet.

Kartan vaihtaminen: klikkaa mustalla rastilla varustettuja vihreitä pisteitä, niin voit zoomata sisään; viivalla varustettua vihreää pistettä, niin voit zoomata ulos tai vihreitä nuolia, niin pääset viereisille kartoille.


METAR-TAF: